createdAt,value
2023-04-05T00:00:21.429Z,1.01
2023-04-05T00:01:25.446Z,1.06
2023-04-05T00:02:29.715Z,0.85
2023-04-05T00:03:32.079Z,0.68
2023-04-05T00:04:34.642Z,0.57
2023-04-05T00:05:37.224Z,0.55
2023-04-05T00:06:39.936Z,0.53
2023-04-05T00:07:42.164Z,0.45
2023-04-05T00:08:49.812Z,0.45
2023-04-05T00:09:52.078Z,0.52
2023-04-05T00:10:54.373Z,0.45
2023-04-05T00:11:56.888Z,0.35
2023-04-05T00:12:59.161Z,0.34
2023-04-05T00:14:02.796Z,0.30
2023-04-05T00:15:05.194Z,0.34
2023-04-05T00:16:07.813Z,0.33
2023-04-05T00:17:11.962Z,0.28
2023-04-05T00:18:21.712Z,0.17
2023-04-05T00:19:23.855Z,0.28
2023-04-05T00:20:26.173Z,0.32
2023-04-05T00:21:28.345Z,0.33
2023-04-05T00:22:31.809Z,0.30
2023-04-05T00:23:38.257Z,0.24
2023-04-05T00:24:43.383Z,0.25
2023-04-05T00:25:45.829Z,0.37
2023-04-05T00:26:47.992Z,0.29
2023-04-05T00:27:50.254Z,0.31
2023-04-05T00:28:52.653Z,0.33
2023-04-05T00:29:54.906Z,0.23
2023-04-05T00:30:57.169Z,0.28
2023-04-05T00:31:59.392Z,0.41
2023-04-05T00:33:01.865Z,0.41
2023-04-05T00:34:06.013Z,0.31
2023-04-05T00:35:08.638Z,0.36
2023-04-05T00:36:19.227Z,0.52
2023-04-05T00:37:21.805Z,0.59
2023-04-05T00:38:24.043Z,0.68
2023-04-05T00:39:26.434Z,0.76
2023-04-05T00:40:28.617Z,0.78
2023-04-05T00:41:30.827Z,0.87
2023-04-05T00:42:33.580Z,0.87
2023-04-05T00:43:35.768Z,0.96
2023-04-05T00:44:38.188Z,0.91
2023-04-05T00:45:40.998Z,0.97
2023-04-05T00:46:45.649Z,1.01
2023-04-05T00:47:48.205Z,0.92
2023-04-05T00:48:50.603Z,0.94
2023-04-05T00:49:56.213Z,0.95
2023-04-05T00:50:59.086Z,0.96
2023-04-05T00:52:01.350Z,0.93
2023-04-05T00:53:03.626Z,0.94
2023-04-05T00:54:06.316Z,0.93
2023-04-05T00:55:10.226Z,0.95
2023-04-05T00:56:13.075Z,0.97
2023-04-05T00:57:16.729Z,0.96
2023-04-05T00:58:22.026Z,0.92
2023-04-05T00:59:24.475Z,0.87
2023-04-05T01:00:27.690Z,0.77
2023-04-05T01:01:32.910Z,0.68
2023-04-05T01:02:58.169Z,0.67
2023-04-05T01:04:05.281Z,0.60
2023-04-05T01:05:19.613Z,0.50
2023-04-05T01:07:01.850Z,0.36
2023-04-05T01:08:36.346Z,0.35
2023-04-05T01:09:57.376Z,0.51
2023-04-05T01:11:05.487Z,0.36
2023-04-05T01:12:09.890Z,0.35
2023-04-05T01:13:12.626Z,0.34
2023-04-05T01:14:14.900Z,0.41
2023-04-05T01:15:18.764Z,0.50
2023-04-05T01:16:21.173Z,0.57
2023-04-05T01:17:30.050Z,0.59
2023-04-05T01:18:32.922Z,0.61
2023-04-05T01:19:41.821Z,0.59
2023-04-05T01:20:53.686Z,0.44
2023-04-05T01:22:15.107Z,0.34
2023-04-05T01:23:32.664Z,0.26
2023-04-05T01:25:10.808Z,0.35
2023-04-05T01:26:44.062Z,0.24
2023-04-05T01:27:58.582Z,0.43
2023-04-05T01:29:33.620Z,0.40
2023-04-05T01:30:38.936Z,0.46
2023-04-05T01:31:49.849Z,0.50
2023-04-05T01:33:19.296Z,0.52
2023-04-05T01:34:40.697Z,0.56
2023-04-05T01:36:00.960Z,0.50
2023-04-05T01:37:11.462Z,0.47
2023-04-05T01:38:18.600Z,0.49
2023-04-05T01:39:23.141Z,0.50
2023-04-05T01:40:25.680Z,0.43
2023-04-05T01:41:28.230Z,0.41
2023-04-05T01:42:30.663Z,0.42
2023-04-05T01:43:32.790Z,0.39
2023-04-05T01:44:36.998Z,0.39
2023-04-05T01:45:39.185Z,0.42
2023-04-05T01:46:41.387Z,0.42
2023-04-05T01:47:43.691Z,0.43
2023-04-05T01:48:46.412Z,0.40
2023-04-05T01:49:49.971Z,0.38
2023-04-05T01:50:52.663Z,0.36
2023-04-05T01:51:54.906Z,0.28
2023-04-05T01:52:57.065Z,0.33
2023-04-05T01:53:59.249Z,0.30
2023-04-05T01:55:01.445Z,0.32
2023-04-05T01:56:03.772Z,0.30
2023-04-05T01:57:06.131Z,0.31
2023-04-05T01:58:09.020Z,0.34
2023-04-05T01:59:11.199Z,0.34
2023-04-05T02:02:10.608Z,0.14
2023-04-05T02:03:12.985Z,0.17
2023-04-05T02:04:15.309Z,0.15
2023-04-05T02:05:17.444Z,0.15
2023-04-05T02:06:19.646Z,0.11
2023-04-05T02:07:21.897Z,0.12
2023-04-05T02:08:24.061Z,0.07
2023-04-05T02:09:26.254Z,0.09
2023-04-05T02:10:28.462Z,0.12
2023-04-05T02:11:31.042Z,0.11
2023-04-05T02:12:34.595Z,0.16
2023-04-05T02:13:36.887Z,0.20
2023-04-05T02:14:39.071Z,0.22
2023-04-05T02:15:41.241Z,0.29
2023-04-05T02:16:43.891Z,0.19
2023-04-05T02:17:46.358Z,0.10
2023-04-05T02:18:50.856Z,0.09
2023-04-05T02:19:53.319Z,-0.19
2023-04-05T02:21:10.483Z,-0.30
2023-04-05T02:22:12.968Z,-0.37
2023-04-05T02:23:15.107Z,-0.44
2023-04-05T02:24:17.300Z,-0.41
2023-04-05T02:25:20.757Z,-0.53
2023-04-05T02:26:22.983Z,-0.64
2023-04-05T02:27:25.899Z,-0.68
2023-04-05T02:28:29.309Z,-0.69
2023-04-05T02:29:33.284Z,-0.77
2023-04-05T02:30:35.592Z,-0.78
2023-04-05T02:31:37.800Z,-0.74
2023-04-05T02:32:42.537Z,-0.71
2023-04-05T02:33:44.742Z,-0.72
2023-04-05T02:34:46.950Z,-0.71
2023-04-05T02:35:53.572Z,-0.73
2023-04-05T02:36:55.981Z,-0.84
2023-04-05T02:37:58.279Z,-0.82
2023-04-05T02:39:00.436Z,-0.91
2023-04-05T02:40:05.680Z,-0.86
2023-04-05T02:41:11.852Z,-0.88
2023-04-05T02:42:14.081Z,-0.83
2023-04-05T02:43:17.398Z,-1.02
2023-04-05T02:44:19.595Z,-1.01
2023-04-05T02:45:21.926Z,-1.04
2023-04-05T02:46:24.930Z,-1.13
2023-04-05T02:47:27.328Z,-1.14
2023-04-05T02:48:33.267Z,-1.19
2023-04-05T02:49:36.009Z,-1.20
2023-04-05T02:50:41.292Z,-1.17
2023-04-05T02:51:43.917Z,-1.19
2023-04-05T02:52:49.922Z,-1.12
2023-04-05T02:53:53.465Z,-1.09
2023-04-05T02:54:55.779Z,-1.05
2023-04-05T02:56:03.527Z,-1.08
2023-04-05T02:57:11.372Z,-1.04
2023-04-05T02:58:23.310Z,-1.06
2023-04-05T02:59:25.613Z,-1.10
2023-04-05T03:00:28.957Z,-1.15
2023-04-05T03:01:36.432Z,-1.11
2023-04-05T03:02:39.877Z,-1.12
2023-04-05T03:03:42.213Z,-1.12
2023-04-05T03:04:44.860Z,-1.11
2023-04-05T03:05:59.210Z,-1.08
2023-04-05T03:07:04.852Z,-1.04
2023-04-05T03:08:18.572Z,-1.07
2023-04-05T03:09:33.213Z,-0.99
2023-04-05T03:10:44.840Z,-1.01
2023-04-05T03:11:52.523Z,-1.09
2023-04-05T03:12:54.702Z,-0.98
2023-04-05T03:14:00.602Z,-0.95
2023-04-05T03:15:10.718Z,-0.87
2023-04-05T03:16:16.938Z,-0.83
2023-04-05T03:17:20.049Z,-0.78
2023-04-05T03:18:31.856Z,-0.76
2023-04-05T03:19:40.701Z,-0.73
2023-04-05T03:20:50.222Z,-0.76
2023-04-05T03:21:57.987Z,-0.76
2023-04-05T03:23:08.970Z,-0.80
2023-04-05T03:24:11.910Z,-0.82
2023-04-05T03:25:17.338Z,-0.93
2023-04-05T03:26:23.072Z,-1.01
2023-04-05T03:27:29.126Z,-1.16
2023-04-05T03:28:37.950Z,-1.38
2023-04-05T03:29:42.881Z,-1.33
2023-04-05T03:30:50.375Z,-1.32
2023-04-05T03:31:55.285Z,-1.37
2023-04-05T03:33:03.076Z,-1.24
2023-04-05T03:34:22.175Z,-1.42
2023-04-05T03:35:25.527Z,-1.38
2023-04-05T03:36:30.663Z,-1.26
2023-04-05T03:37:33.817Z,-1.22
2023-04-05T03:38:42.488Z,-1.20
2023-04-05T03:39:52.006Z,-1.32
2023-04-05T03:40:54.595Z,-1.19
2023-04-05T03:41:56.832Z,-1.28
2023-04-05T03:42:59.068Z,-1.37
2023-04-05T03:44:02.244Z,-1.32
2023-04-05T03:45:06.102Z,-1.33
2023-04-05T03:46:08.413Z,-1.26
2023-04-05T03:47:10.964Z,-1.27
2023-04-05T03:48:20.067Z,-1.39
2023-04-05T03:49:24.003Z,-1.44
2023-04-05T03:50:26.599Z,-1.49
2023-04-05T03:51:28.781Z,-1.48
2023-04-05T03:52:31.052Z,-1.38
2023-04-05T03:53:33.756Z,-1.36
2023-04-05T03:54:36.065Z,-1.35
2023-04-05T03:55:38.462Z,-1.28
2023-04-05T03:56:42.120Z,-1.24
2023-04-05T03:57:49.049Z,-1.25
2023-04-05T03:59:02.124Z,-1.38
2023-04-05T04:00:14.083Z,-1.48
2023-04-05T04:01:17.076Z,-1.55
2023-04-05T04:02:19.322Z,-1.55
2023-04-05T04:03:21.546Z,-1.59
2023-04-05T04:04:27.919Z,-1.63
2023-04-05T04:05:31.396Z,-1.66
2023-04-05T04:06:34.288Z,-1.67
2023-04-05T04:07:36.529Z,-1.60
2023-04-05T04:08:39.379Z,-1.65
2023-04-05T04:09:41.832Z,-1.64
2023-04-05T04:10:46.436Z,-1.63
2023-04-05T04:11:57.082Z,-1.69
2023-04-05T04:13:00.267Z,-1.69
2023-04-05T04:14:07.944Z,-1.75
2023-04-05T04:15:22.366Z,-1.74
2023-04-05T04:16:44.067Z,-1.80
2023-04-05T04:18:05.165Z,-1.78
2023-04-05T04:19:21.397Z,-1.72
2023-04-05T04:20:52.182Z,-1.74
2023-04-05T04:22:10.210Z,-1.76
2023-04-05T04:23:24.608Z,-1.63
2023-04-05T04:24:32.449Z,-1.56
2023-04-05T04:26:11.578Z,-1.66
2023-04-05T04:27:43.700Z,-1.66
2023-04-05T04:29:06.583Z,-1.78
2023-04-05T04:30:22.579Z,-1.80
2023-04-05T04:31:39.783Z,-1.87
2023-04-05T04:32:58.076Z,-1.93
2023-04-05T04:34:21.049Z,-1.89
2023-04-05T04:35:34.855Z,-1.73
2023-04-05T04:37:02.092Z,-1.63
2023-04-05T04:38:18.982Z,-1.54
2023-04-05T04:39:44.522Z,-1.52
2023-04-05T04:41:13.863Z,-1.47
2023-04-05T04:42:20.081Z,-1.42
2023-04-05T04:43:33.847Z,-1.44
2023-04-05T04:44:54.470Z,-1.62
2023-04-05T04:46:06.616Z,-1.60
2023-04-05T04:47:17.413Z,-1.58
2023-04-05T04:48:44.404Z,-1.64
2023-04-05T04:49:52.625Z,-1.68
2023-04-05T04:50:54.862Z,-1.71
2023-04-05T04:51:59.500Z,-1.75
2023-04-05T04:53:02.193Z,-1.62
2023-04-05T04:54:04.476Z,-1.69
2023-04-05T04:55:08.702Z,-1.71
2023-04-05T04:56:11.309Z,-1.74
2023-04-05T04:57:14.044Z,-1.78
2023-04-05T04:58:17.380Z,-1.85
2023-04-05T04:59:25.268Z,-1.80
2023-04-05T05:00:27.564Z,-1.82
2023-04-05T05:01:30.680Z,-1.71
2023-04-05T05:02:33.949Z,-1.70
2023-04-05T05:03:38.526Z,-1.48
2023-04-05T05:04:42.227Z,-1.52
2023-04-05T05:05:46.736Z,-1.55
2023-04-05T05:06:53.960Z,-1.66
2023-04-05T05:07:56.107Z,-1.70
2023-04-05T05:08:58.278Z,-1.61
2023-04-05T05:10:02.007Z,-1.64
2023-04-05T05:11:07.422Z,-1.56
2023-04-05T05:12:09.546Z,-1.57
2023-04-05T05:13:11.744Z,-1.51
2023-04-05T05:14:13.881Z,-1.37
2023-04-05T05:15:16.044Z,-1.43
2023-04-05T05:16:18.980Z,-1.41
2023-04-05T05:17:21.754Z,-1.31
2023-04-05T05:18:23.947Z,-1.20
2023-04-05T05:19:26.575Z,-0.99
2023-04-05T05:20:30.102Z,-1.01
2023-04-05T05:21:32.269Z,-1.04
2023-04-05T05:22:38.046Z,-0.88
2023-04-05T05:23:40.719Z,-0.93
2023-04-05T05:24:44.594Z,-0.83
2023-04-05T05:25:47.062Z,-0.79
2023-04-05T05:26:50.883Z,-0.92
2023-04-05T05:27:54.157Z,-1.08
2023-04-05T05:29:02.078Z,-1.07
2023-04-05T05:30:06.856Z,-0.50
2023-04-05T05:31:09.136Z,0.18
2023-04-05T05:32:15.802Z,1.79
2023-04-05T05:33:18.553Z,3.25
2023-04-05T05:34:22.080Z,4.20
2023-04-05T05:35:31.302Z,5.44
2023-04-05T05:36:33.592Z,5.35
2023-04-05T05:37:36.632Z,5.70
2023-04-05T05:38:38.789Z,6.51
2023-04-05T05:39:42.056Z,7.11
2023-04-05T05:40:44.693Z,7.40
2023-04-05T05:41:47.608Z,7.54
2023-04-05T05:42:49.777Z,7.89
2023-04-05T05:43:52.218Z,7.45
2023-04-05T05:44:54.436Z,7.05
2023-04-05T05:46:01.045Z,7.23
2023-04-05T05:47:03.509Z,7.94
2023-04-05T05:48:05.943Z,8.56
2023-04-05T05:49:09.329Z,8.85
2023-04-05T05:50:11.848Z,9.66
2023-04-05T05:51:14.011Z,10.12
2023-04-05T05:52:16.483Z,10.26
2023-04-05T05:53:18.672Z,10.70
2023-04-05T05:54:21.177Z,10.68
2023-04-05T05:55:23.404Z,10.28
2023-04-05T05:56:25.994Z,10.63
2023-04-05T05:57:28.158Z,10.58
2023-04-05T05:58:30.762Z,10.54
2023-04-05T05:59:33.053Z,10.24
2023-04-05T06:00:36.280Z,10.03
2023-04-05T06:01:42.939Z,9.60
2023-04-05T06:02:45.725Z,10.01
2023-04-05T06:03:48.024Z,10.43
2023-04-05T06:04:50.956Z,10.43
2023-04-05T06:05:56.529Z,10.96
2023-04-05T06:06:58.966Z,12.02
2023-04-05T06:08:01.436Z,12.42
2023-04-05T06:09:03.822Z,12.58
2023-04-05T06:10:07.085Z,12.59
2023-04-05T06:11:17.591Z,13.03
2023-04-05T06:12:22.573Z,12.57
2023-04-05T06:13:24.825Z,11.28
2023-04-05T06:14:28.659Z,11.50
2023-04-05T06:15:32.580Z,12.33
2023-04-05T06:16:35.514Z,12.72
2023-04-05T06:17:42.339Z,12.66
2023-04-05T06:18:45.034Z,11.97
2023-04-05T06:19:48.045Z,12.04
2023-04-05T06:20:50.936Z,11.45
2023-04-05T06:21:55.004Z,11.17
2023-04-05T06:22:57.326Z,11.30
2023-04-05T06:23:59.678Z,12.00
2023-04-05T06:25:02.050Z,12.15
2023-04-05T06:26:04.400Z,11.76
2023-04-05T06:27:06.711Z,10.38
2023-04-05T06:28:08.901Z,9.09
2023-04-05T06:29:12.040Z,7.51
2023-04-05T06:30:14.811Z,6.13
2023-04-05T06:31:17.783Z,5.04
2023-04-05T06:32:21.126Z,4.38
2023-04-05T06:33:23.700Z,3.91
2023-04-05T06:34:25.985Z,3.69
2023-04-05T06:35:28.139Z,3.33
2023-04-05T06:36:32.127Z,3.30
2023-04-05T06:37:34.568Z,3.14
2023-04-05T06:38:36.786Z,3.07
2023-04-05T06:39:38.968Z,2.86
2023-04-05T06:40:41.537Z,2.85
2023-04-05T06:41:44.069Z,2.83
2023-04-05T06:42:46.279Z,2.70
2023-04-05T06:43:52.819Z,2.71
2023-04-05T06:44:55.228Z,2.76
2023-04-05T06:45:57.952Z,2.66
2023-04-05T06:47:00.366Z,2.91
2023-04-05T06:48:03.276Z,3.06
2023-04-05T06:49:05.789Z,3.13
2023-04-05T06:50:09.722Z,3.14
2023-04-05T06:51:11.974Z,3.06
2023-04-05T06:52:14.203Z,3.23
2023-04-05T06:53:18.295Z,3.21
2023-04-05T06:54:22.987Z,3.11
2023-04-05T06:55:25.274Z,2.89
2023-04-05T06:56:27.920Z,3.30
2023-04-05T06:57:30.140Z,3.08
2023-04-05T06:58:32.350Z,2.97
2023-04-05T06:59:34.640Z,2.94
2023-04-05T07:00:37.384Z,3.16
2023-04-05T07:01:39.617Z,3.12
2023-04-05T07:02:41.881Z,3.22
2023-04-05T07:03:44.148Z,3.53
2023-04-05T07:04:47.109Z,3.81
2023-04-05T07:05:53.078Z,3.64
2023-04-05T07:06:56.561Z,3.57
2023-04-05T07:07:58.820Z,3.52
2023-04-05T07:09:01.906Z,3.67
2023-04-05T07:10:04.828Z,3.37
2023-04-05T07:11:07.237Z,3.38
2023-04-05T07:12:09.437Z,3.34
2023-04-05T07:13:11.627Z,3.48
2023-04-05T07:14:13.815Z,3.84
2023-04-05T07:15:16.137Z,3.50
2023-04-05T07:16:22.884Z,3.58
2023-04-05T07:17:25.496Z,3.97
2023-04-05T07:18:28.198Z,3.98
2023-04-05T07:19:30.338Z,3.79
2023-04-05T07:20:32.615Z,3.30
2023-04-05T07:21:34.755Z,3.54
2023-04-05T07:22:37.125Z,3.53
2023-04-05T07:23:39.274Z,3.71
2023-04-05T07:24:41.494Z,3.61
2023-04-05T07:25:43.912Z,3.64
2023-04-05T07:26:46.132Z,3.84
2023-04-05T07:27:48.264Z,3.76
2023-04-05T07:28:50.359Z,3.66
2023-04-05T07:29:52.567Z,3.71
2023-04-05T07:30:55.060Z,3.99
2023-04-05T07:31:57.296Z,4.31
2023-04-05T07:32:59.501Z,4.48
2023-04-05T07:34:01.987Z,4.43
2023-04-05T07:35:04.634Z,4.34
2023-04-05T07:36:07.394Z,4.20
2023-04-05T07:37:09.672Z,4.44
2023-04-05T07:38:11.941Z,4.33
2023-04-05T07:39:14.149Z,3.82
2023-04-05T07:40:16.524Z,3.97
2023-04-05T07:41:19.902Z,4.24
2023-04-05T07:42:22.196Z,4.76
2023-04-05T07:43:25.776Z,5.13
2023-04-05T07:44:56.006Z,5.05
2023-04-05T07:46:05.549Z,5.53
2023-04-05T07:47:07.792Z,5.67
2023-04-05T07:48:10.083Z,5.49
2023-04-05T07:49:12.550Z,5.01
2023-04-05T07:50:15.143Z,5.28
2023-04-05T07:51:17.642Z,4.98
2023-04-05T07:52:19.814Z,5.32
2023-04-05T07:53:22.002Z,5.56
2023-04-05T07:54:24.309Z,5.54
2023-04-05T07:55:27.308Z,5.34
2023-04-05T07:56:30.066Z,5.71
2023-04-05T07:57:32.197Z,5.64
2023-04-05T07:58:35.181Z,5.70
2023-04-05T07:59:37.418Z,6.18
2023-04-05T08:00:39.865Z,6.43
2023-04-05T08:01:42.524Z,6.59
2023-04-05T08:02:44.954Z,5.73
2023-04-05T08:03:47.384Z,5.70
2023-04-05T08:04:49.752Z,5.73
2023-04-05T08:05:53.667Z,5.93
2023-04-05T08:06:56.974Z,6.02
2023-04-05T08:07:59.236Z,5.63
2023-04-05T08:09:03.734Z,5.50
2023-04-05T08:10:06.498Z,5.50
2023-04-05T08:11:08.835Z,6.33
2023-04-05T08:12:11.642Z,6.79
2023-04-05T08:13:13.967Z,6.88
2023-04-05T08:14:16.406Z,6.94
2023-04-05T08:15:18.609Z,7.33
2023-04-05T08:16:20.870Z,7.27
2023-04-05T08:17:26.962Z,7.18
2023-04-05T08:18:29.373Z,7.83
2023-04-05T08:19:31.506Z,7.39
2023-04-05T08:20:39.328Z,7.70
2023-04-05T08:21:41.887Z,7.50
2023-04-05T08:22:44.142Z,7.00
2023-04-05T08:23:46.354Z,7.30
2023-04-05T08:24:48.655Z,7.06
2023-04-05T08:25:51.325Z,6.58
2023-04-05T08:26:53.520Z,6.96
2023-04-05T08:27:55.718Z,6.82
2023-04-05T08:28:57.900Z,7.40
2023-04-05T08:30:00.125Z,7.07
2023-04-05T08:31:02.471Z,7.22
2023-04-05T08:32:04.898Z,7.79
2023-04-05T08:33:07.767Z,7.57
2023-04-05T08:34:10.026Z,7.15
2023-04-05T08:35:12.190Z,7.42
2023-04-05T08:36:14.391Z,6.86
2023-04-05T08:37:16.601Z,6.68
2023-04-05T08:38:18.837Z,7.17
2023-04-05T08:39:21.208Z,7.29
2023-04-05T08:40:37.122Z,8.06
2023-04-05T08:41:46.564Z,8.76
2023-04-05T08:42:57.302Z,9.15
2023-04-05T08:44:05.444Z,9.60
2023-04-05T08:45:10.751Z,9.68
2023-04-05T08:46:16.545Z,8.22
2023-04-05T08:47:19.612Z,7.48
2023-04-05T08:48:21.862Z,7.61
2023-04-05T08:49:24.037Z,7.64
2023-04-05T08:50:27.253Z,7.99
2023-04-05T08:51:29.564Z,8.10
2023-04-05T08:52:34.442Z,8.01
2023-04-05T08:53:36.734Z,8.35
2023-04-05T08:54:38.895Z,8.00
2023-04-05T08:55:41.257Z,7.70
2023-04-05T08:56:48.527Z,8.57
2023-04-05T08:57:54.036Z,8.56
2023-04-05T08:59:17.598Z,8.82
2023-04-05T09:00:20.322Z,8.86
2023-04-05T09:01:23.422Z,8.99
2023-04-05T09:02:26.939Z,8.76
2023-04-05T09:03:35.791Z,9.26
2023-04-05T09:04:44.652Z,9.67
2023-04-05T09:05:49.699Z,10.48
2023-04-05T09:06:55.527Z,9.99
2023-04-05T09:07:58.547Z,9.07
2023-04-05T09:09:01.229Z,9.53
2023-04-05T09:10:06.541Z,10.06
2023-04-05T09:11:08.779Z,10.40
2023-04-05T09:12:11.290Z,10.22
2023-04-05T09:13:13.526Z,10.20
2023-04-05T09:15:24.117Z,10.65
2023-04-05T09:16:27.157Z,10.05
2023-04-05T09:17:32.266Z,10.46
2023-04-05T09:18:34.611Z,11.06
2023-04-05T09:19:36.991Z,11.40
2023-04-05T09:20:39.440Z,11.52
2023-04-05T09:22:01.054Z,11.72
2023-04-05T09:23:03.340Z,11.62
2023-04-05T09:24:06.157Z,11.81
2023-04-05T09:25:08.643Z,11.43
2023-04-05T09:26:21.976Z,11.89
2023-04-05T09:27:27.061Z,12.33
2023-04-05T09:28:43.024Z,11.38
2023-04-05T09:29:47.252Z,11.61
2023-04-05T09:30:49.570Z,10.82
2023-04-05T09:31:51.942Z,9.64
2023-04-05T09:32:55.836Z,9.61
2023-04-05T09:34:00.438Z,9.44
2023-04-05T09:35:04.335Z,10.63
2023-04-05T09:36:08.973Z,10.47
2023-04-05T09:37:19.634Z,10.31
2023-04-05T09:38:42.401Z,10.53
2023-04-05T09:39:45.797Z,10.88
2023-04-05T09:40:49.545Z,10.89
2023-04-05T09:42:06.803Z,10.18
2023-04-05T09:43:11.507Z,10.24
2023-04-05T09:44:13.714Z,11.10
2023-04-05T09:45:18.289Z,11.90
2023-04-05T09:46:39.436Z,12.41
2023-04-05T09:47:42.220Z,12.07
2023-04-05T09:48:48.230Z,12.08
2023-04-05T09:49:51.038Z,12.20
2023-04-05T09:51:12.726Z,12.17
2023-04-05T09:52:44.901Z,12.93
2023-04-05T09:54:07.039Z,11.36
2023-04-05T09:55:09.925Z,11.25
2023-04-05T09:56:13.053Z,10.49
2023-04-05T09:57:18.986Z,10.15
2023-04-05T09:58:22.301Z,11.28
2023-04-05T09:59:24.577Z,11.97
2023-04-05T10:00:26.789Z,12.10
2023-04-05T10:01:31.664Z,12.33
2023-04-05T10:02:38.719Z,12.59
2023-04-05T10:03:48.736Z,12.57
2023-04-05T10:04:51.328Z,11.04
2023-04-05T10:05:56.772Z,11.27
2023-04-05T10:06:59.319Z,11.43
2023-04-05T10:08:02.297Z,10.61
2023-04-05T10:09:06.010Z,10.47
2023-04-05T10:10:09.831Z,10.42
2023-04-05T10:11:13.491Z,11.34
2023-04-05T10:12:26.177Z,12.15
2023-04-05T10:13:29.280Z,12.68
2023-04-05T10:14:31.463Z,12.96
2023-04-05T10:15:33.805Z,12.38
2023-04-05T10:16:43.833Z,11.90
2023-04-05T10:17:51.710Z,10.93
2023-04-05T10:18:54.018Z,10.69
2023-04-05T10:20:09.671Z,10.99
2023-04-05T10:21:15.484Z,10.24
2023-04-05T10:22:25.365Z,10.24
2023-04-05T10:23:34.201Z,10.87
2023-04-05T10:24:45.859Z,10.42
2023-04-05T10:25:54.162Z,10.12
2023-04-05T10:27:17.830Z,9.65
2023-04-05T10:28:35.289Z,8.81
2023-04-05T10:29:50.589Z,9.10
2023-04-05T10:31:02.331Z,8.84
2023-04-05T10:32:13.130Z,9.47
2023-04-05T10:33:40.956Z,9.60
2023-04-05T10:35:16.090Z,9.69
2023-04-05T10:36:37.891Z,10.65
2023-04-05T10:38:04.180Z,10.41
2023-04-05T10:39:26.151Z,10.69
2023-04-05T10:40:32.722Z,11.62
2023-04-05T10:41:48.640Z,11.88
2023-04-05T10:42:51.154Z,12.26
2023-04-05T10:43:57.227Z,11.66
2023-04-05T10:45:04.735Z,11.95
2023-04-05T10:46:11.114Z,12.36
2023-04-05T10:47:18.845Z,12.75
2023-04-05T10:48:55.257Z,12.24
2023-04-05T10:50:02.868Z,11.22
2023-04-05T10:51:05.493Z,10.74
2023-04-05T10:52:08.165Z,10.73
2023-04-05T10:53:11.334Z,11.05
2023-04-05T10:54:17.010Z,10.46
2023-04-05T10:55:20.972Z,9.95
2023-04-05T10:56:25.031Z,9.40
2023-04-05T10:57:27.761Z,9.70
2023-04-05T10:58:31.145Z,10.34
2023-04-05T10:59:34.996Z,11.04
2023-04-05T11:00:37.485Z,10.40
2023-04-05T11:01:41.092Z,10.44
2023-04-05T11:02:43.745Z,10.65
2023-04-05T11:03:48.887Z,11.28
2023-04-05T11:04:57.426Z,11.97
2023-04-05T11:06:19.014Z,11.55
2023-04-05T11:07:21.345Z,10.17
2023-04-05T11:08:24.393Z,9.74
2023-04-05T11:09:26.859Z,10.52
2023-04-05T11:10:29.673Z,10.78
2023-04-05T11:11:42.004Z,10.95
2023-04-05T11:12:46.976Z,10.97
2023-04-05T11:13:56.821Z,10.91
2023-04-05T11:15:35.001Z,11.95
2023-04-05T11:16:40.890Z,11.67
2023-04-05T11:17:43.228Z,11.70
2023-04-05T11:18:50.231Z,11.60
2023-04-05T11:20:02.710Z,10.89
2023-04-05T11:21:07.998Z,11.45
2023-04-05T11:22:10.923Z,11.68
2023-04-05T11:23:18.486Z,11.69
2023-04-05T11:24:20.700Z,10.92
2023-04-05T11:25:24.597Z,11.23
2023-04-05T11:26:41.698Z,11.58
2023-04-05T11:28:00.667Z,11.35
2023-04-05T11:29:02.966Z,11.36
2023-04-05T11:30:11.056Z,11.93
2023-04-05T11:31:18.982Z,12.17
2023-04-05T11:32:22.494Z,11.61
2023-04-05T11:33:56.871Z,11.83
2023-04-05T11:35:07.386Z,11.48
2023-04-05T11:36:10.722Z,11.40
2023-04-05T11:37:15.520Z,11.24
2023-04-05T11:38:23.592Z,11.77
2023-04-05T11:39:25.932Z,11.54
2023-04-05T11:40:33.097Z,10.60
2023-04-05T11:41:35.263Z,10.68
2023-04-05T11:42:37.929Z,11.76
2023-04-05T11:43:43.649Z,11.81
2023-04-05T11:44:48.657Z,11.29
2023-04-05T11:45:50.994Z,10.47
2023-04-05T11:46:54.663Z,10.25
2023-04-05T11:47:57.345Z,10.41
2023-04-05T11:48:59.577Z,10.66
2023-04-05T11:50:01.845Z,11.37
2023-04-05T11:51:14.672Z,11.92
2023-04-05T11:52:19.944Z,12.01
2023-04-05T11:53:22.182Z,11.70
2023-04-05T11:54:32.247Z,11.94
2023-04-05T11:55:34.439Z,10.78
2023-04-05T11:56:37.605Z,10.88
2023-04-05T11:57:39.794Z,11.01
2023-04-05T11:58:42.632Z,10.76
2023-04-05T11:59:44.874Z,10.54
2023-04-05T12:00:57.130Z,10.35
2023-04-05T12:02:08.046Z,9.59
2023-04-05T12:03:17.078Z,10.27
2023-04-05T12:04:19.504Z,10.77
2023-04-05T12:05:21.863Z,11.06
2023-04-05T12:06:25.714Z,11.11
2023-04-05T12:07:29.347Z,10.57
2023-04-05T12:08:50.552Z,10.57
2023-04-05T12:09:58.518Z,11.02
2023-04-05T12:11:04.152Z,11.09
2023-04-05T12:12:16.604Z,11.21
2023-04-05T12:13:25.235Z,11.81
2023-04-05T12:14:27.622Z,11.97
2023-04-05T12:15:29.869Z,11.60
2023-04-05T12:16:32.167Z,12.01
2023-04-05T12:17:49.629Z,11.74
2023-04-05T12:19:00.223Z,10.80
2023-04-05T12:20:02.545Z,11.40
2023-04-05T12:21:07.849Z,11.40
2023-04-05T12:22:10.681Z,11.92
2023-04-05T12:23:13.098Z,11.43
2023-04-05T12:24:15.413Z,11.28
2023-04-05T12:25:18.370Z,11.48
2023-04-05T12:26:23.631Z,11.83
2023-04-05T12:27:25.959Z,12.15
2023-04-05T12:28:55.928Z,11.33
2023-04-05T12:30:17.953Z,10.87
2023-04-05T12:31:39.009Z,10.82
2023-04-05T12:33:07.744Z,11.28
2023-04-05T12:34:11.549Z,11.86
2023-04-05T12:35:17.499Z,10.87
2023-04-05T12:36:19.888Z,10.37
2023-04-05T12:37:22.107Z,10.40
2023-04-05T12:38:27.732Z,10.38
2023-04-05T12:39:31.873Z,10.46
2023-04-05T12:40:35.359Z,10.90
2023-04-05T12:41:37.946Z,10.91
2023-04-05T12:42:41.114Z,10.59
2023-04-05T12:43:43.376Z,10.15
2023-04-05T12:44:45.756Z,10.34
2023-04-05T12:45:50.443Z,11.10
2023-04-05T12:47:01.896Z,11.03
2023-04-05T12:48:04.133Z,10.56
2023-04-05T12:49:06.985Z,10.72
2023-04-05T12:50:17.025Z,10.53
2023-04-05T12:51:19.190Z,10.53
2023-04-05T12:52:21.459Z,10.85
2023-04-05T12:53:28.465Z,10.43
2023-04-05T12:54:33.666Z,10.04
2023-04-05T12:55:44.295Z,10.64
2023-04-05T12:56:49.574Z,10.93
2023-04-05T12:57:54.136Z,10.81
2023-04-05T12:58:56.325Z,11.55
2023-04-05T12:59:58.621Z,11.95
2023-04-05T13:01:00.942Z,12.33
2023-04-05T13:02:03.228Z,12.63
2023-04-05T13:03:05.643Z,12.55
2023-04-05T13:04:15.365Z,12.67
2023-04-05T13:05:20.282Z,12.85
2023-04-05T13:06:22.423Z,13.18
2023-04-05T13:07:24.632Z,12.54
2023-04-05T13:08:27.627Z,12.77
2023-04-05T13:09:32.242Z,12.52
2023-04-05T13:10:34.540Z,12.30
2023-04-05T13:11:36.747Z,12.55
2023-04-05T13:12:39.162Z,12.06
2023-04-05T13:13:41.309Z,12.13
2023-04-05T13:14:43.541Z,11.92
2023-04-05T13:15:45.979Z,11.71
2023-04-05T13:16:49.589Z,11.65
2023-04-05T13:17:53.342Z,11.67
2023-04-05T13:18:55.837Z,11.86
2023-04-05T13:19:58.084Z,11.80
2023-04-05T13:21:00.611Z,11.50
2023-04-05T13:22:02.914Z,10.60
2023-04-05T13:23:10.966Z,10.84
2023-04-05T13:24:13.233Z,10.76
2023-04-05T13:25:16.055Z,11.33
2023-04-05T13:26:18.331Z,11.87
2023-04-05T13:27:21.704Z,12.09
2023-04-05T13:28:25.860Z,11.85
2023-04-05T13:29:28.414Z,11.98
2023-04-05T13:30:31.836Z,11.45
2023-04-05T13:31:34.151Z,11.65
2023-04-05T13:32:36.419Z,11.30
2023-04-05T13:33:38.670Z,11.08
2023-04-05T13:34:40.956Z,10.81
2023-04-05T13:35:43.359Z,11.06
2023-04-05T13:36:45.968Z,10.71
2023-04-05T13:37:49.621Z,10.74
2023-04-05T13:38:51.979Z,10.85
2023-04-05T13:39:54.275Z,10.95
2023-04-05T13:40:56.661Z,10.99
2023-04-05T13:41:58.839Z,11.33
2023-04-05T13:43:01.290Z,11.82
2023-04-05T13:44:06.724Z,11.60
2023-04-05T13:45:10.158Z,11.68
2023-04-05T13:46:12.364Z,11.72
2023-04-05T13:47:16.058Z,12.23
2023-04-05T13:48:18.243Z,12.83
2023-04-05T13:49:20.524Z,13.15
2023-04-05T13:50:22.958Z,13.21
2023-04-05T13:51:25.410Z,13.23
2023-04-05T13:52:27.697Z,13.24
2023-04-05T13:53:30.377Z,12.86
2023-04-05T13:54:32.549Z,12.27
2023-04-05T13:55:34.691Z,12.50
2023-04-05T13:56:37.666Z,11.76
2023-04-05T13:57:39.901Z,12.04
2023-04-05T13:58:42.162Z,11.59
2023-04-05T13:59:44.371Z,11.77
2023-04-05T14:00:47.266Z,11.52
2023-04-05T14:01:49.660Z,11.99
2023-04-05T14:02:52.011Z,12.29
2023-04-05T14:03:54.469Z,12.12
2023-04-05T14:04:56.848Z,12.47
2023-04-05T14:05:59.205Z,12.97
2023-04-05T14:07:01.532Z,13.29
2023-04-05T14:08:03.827Z,13.37
2023-04-05T14:09:06.009Z,13.42
2023-04-05T14:10:08.625Z,13.12
2023-04-05T14:11:10.917Z,13.41
2023-04-05T14:12:14.122Z,13.53
2023-04-05T14:13:17.546Z,13.70
2023-04-05T14:14:19.758Z,13.30
2023-04-05T14:15:21.929Z,13.27
2023-04-05T14:16:24.448Z,13.24
2023-04-05T14:17:26.827Z,13.49
2023-04-05T14:18:29.147Z,13.25
2023-04-05T14:19:31.492Z,13.26